Time;durP1;ratioP1;P1;durP2;ratioP2;P2;SDS_P1;SDS_P2;PMS_P1;PMS_P2;Temp;Humidity;BMP_temperature;BMP_pressure;BME280_temperature;BME280_humidity;BME280_pressure;Samples;Min_cycle;Max_cycle;Signal;HPM_P1;HPM_P2
2021/03/12 00:02:02;;;;;;;37.63;16.00;;;;;;;-1.02;64.37;94207.50;5090566;28;20016;-77
2021/03/12 00:04:28;;;;;;;34.65;15.88;;;;;;;-1.05;64.74;94213.22;5091486;28;20024;-77
2021/03/12 00:06:53;;;;;;;26.83;14.43;;;;;;;-1.01;64.42;94217.75;5091939;28;20470;-77
2021/03/12 00:09:18;;;;;;;36.30;17.17;;;;;;;-1.05;65.34;94218.44;5090098;28;20028;-77
2021/03/12 00:11:44;;;;;;;19.80;11.43;;;;;;;-1.04;65.14;94214.78;5090333;28;20352;-77
2021/03/12 00:14:09;;;;;;;33.83;15.18;;;;;;;-1.09;65.28;94228.56;5090279;28;20122;-77
2021/03/12 00:16:34;;;;;;;37.50;16.50;;;;;;;-1.14;66.07;94214.59;5089995;28;20023;-80
2021/03/12 00:19:00;;;;;;;39.03;17.40;;;;;;;-1.17;66.23;94209.84;5091529;28;20034;-80
2021/03/12 00:21:25;;;;;;;35.58;15.90;;;;;;;-1.30;66.80;94216.13;5091318;28;20563;-78
2021/03/12 00:23:51;;;;;;;40.92;18.25;;;;;;;-1.34;67.30;94207.13;5090510;28;20096;-79
2021/03/12 00:26:16;;;;;;;37.83;18.83;;;;;;;-1.38;67.55;94204.19;5091504;28;20031;-78
2021/03/12 00:28:41;;;;;;;37.75;17.38;;;;;;;-1.34;67.71;94210.53;5090011;28;20089;-79
2021/03/12 00:31:07;;;;;;;38.58;17.52;;;;;;;-1.30;67.52;94200.44;5090317;28;20028;-78
2021/03/12 00:33:34;;;;;;;39.55;17.90;;;;;;;-1.27;67.31;94208.59;5090161;28;20027;-78
2021/03/12 00:35:59;;;;;;;40.13;18.88;;;;;;;-1.22;66.86;94197.47;5085067;28;20479;-78
2021/03/12 00:38:25;;;;;;;37.03;18.85;;;;;;;-1.16;66.86;94195.72;5091834;28;20032;-79
2021/03/12 00:40:54;;;;;;;44.08;20.42;;;;;;;-1.14;66.97;94183.19;5090457;28;20144;-79
2021/03/12 00:43:21;;;;;;;41.63;18.75;;;;;;;-1.15;66.74;94179.00;5090145;28;20107;-79
2021/03/12 00:45:49;;;;;;;44.25;18.40;;;;;;;-1.07;66.60;94189.09;5089482;28;20147;-79
2021/03/12 00:48:15;;;;;;;42.60;20.60;;;;;;;-1.01;65.85;94178.50;5089524;28;20027;-79
2021/03/12 00:50:42;;;;;;;45.83;21.95;;;;;;;-1.13;66.13;94164.66;5089321;28;20034;-79
2021/03/12 00:53:08;;;;;;;54.60;23.00;;;;;;;-1.17;66.44;94155.69;5089478;28;20032;-78
2021/03/12 00:55:35;;;;;;;45.97;20.83;;;;;;;-1.25;66.56;94146.38;5090694;28;20075;-79
2021/03/12 00:58:01;;;;;;;42.45;19.75;;;;;;;-1.28;66.96;94151.31;5089349;28;20556;-79
2021/03/12 01:00:28;;;;;;;49.80;21.38;;;;;;;-1.24;66.92;94157.66;5089566;28;20032;-79
2021/03/12 01:02:54;;;;;;;51.58;21.63;;;;;;;-1.19;66.17;94159.56;5090186;28;20032;-79
2021/03/12 01:05:20;;;;;;;46.67;21.10;;;;;;;-1.22;66.04;94169.47;5089330;28;20039;-79
2021/03/12 01:07:46;;;;;;;40.90;20.05;;;;;;;-1.25;66.41;94167.31;5088954;28;20028;-79
2021/03/12 01:10:14;;;;;;;45.75;20.52;;;;;;;-1.21;65.94;94154.56;5089352;28;20027;-79
2021/03/12 01:12:40;;;;;;;47.95;21.25;;;;;;;-1.21;65.74;94154.56;5088643;28;20024;-79
2021/03/12 01:15:09;;;;;;;38.75;18.42;;;;;;;-1.45;66.42;94141.53;5088960;28;20051;-79
2021/03/12 01:17:36;;;;;;;44.70;20.35;;;;;;;-1.49;66.78;94134.41;5089284;28;20019;-79
2021/03/12 01:20:08;;;;;;;46.22;21.48;;;;;;;-1.45;66.98;94131.09;5088878;28;20073;-79
2021/03/12 01:22:33;;;;;;;;;;;;;;;-1.43;66.55;94134.25;5090742;28;20012;-79
2021/03/12 01:25:00;;;;;;;41.65;18.73;;;;;;;-1.50;66.77;94133.59;5090291;28;20393;-79
2021/03/12 01:27:25;;;;;;;42.95;18.70;;;;;;;-1.48;66.77;94128.16;5089266;28;20108;-79
2021/03/12 01:29:52;;;;;;;51.35;21.20;;;;;;;-1.39;66.86;94139.03;5090002;28;20055;-79
2021/03/12 01:32:18;;;;;;;58.72;24.55;;;;;;;-1.42;67.10;94128.03;5089226;28;20122;-79
2021/03/12 01:34:43;;;;;;;48.00;22.10;;;;;;;-1.43;67.05;94138.69;5089091;28;20479;-79
2021/03/12 01:37:08;;;;;;;44.20;20.67;;;;;;;-1.39;67.14;94139.81;5090439;28;20035;-78
2021/03/12 01:39:34;;;;;;;47.97;21.60;;;;;;;-1.32;66.24;94116.16;5097532;28;20103;-78
2021/03/12 01:41:59;;;;;;;41.38;20.35;;;;;;;-1.34;66.68;94113.78;5096288;28;20049;-78
2021/03/12 01:44:25;;;;;;;41.35;19.02;;;;;;;-1.31;66.68;94126.38;5096823;28;20038;-79
2021/03/12 01:46:50;;;;;;;34.17;17.35;;;;;;;-1.26;66.11;94128.31;5089870;28;20070;-80
2021/03/12 01:49:15;;;;;;;41.95;19.52;;;;;;;-1.25;66.31;94120.22;5088523;28;20016;-80
2021/03/12 01:51:41;;;;;;;36.30;16.70;;;;;;;-1.22;65.97;94139.91;5090000;28;20024;-80
2021/03/12 01:54:07;;;;;;;41.08;19.55;;;;;;;-1.22;65.62;94148.53;5088734;28;20047;-81
2021/03/12 01:56:32;;;;;;;46.13;19.40;;;;;;;-1.30;65.73;94148.13;5088364;28;20401;-81
2021/03/12 01:58:58;;;;;;;54.17;22.60;;;;;;;-1.38;66.41;94140.63;5089686;28;20030;-81
2021/03/12 02:01:23;;;;;;;41.10;18.83;;;;;;;-1.38;66.69;94157.13;5088305;28;20047;-81
2021/03/12 02:03:49;;;;;;;42.53;20.63;;;;;;;-1.39;66.58;94139.81;5088469;28;20474;-82
2021/03/12 02:06:14;;;;;;;43.60;20.73;;;;;;;-1.39;66.82;94144.28;5088347;28;20177;-82
2021/03/12 02:08:39;;;;;;;43.65;20.77;;;;;;;-1.42;67.09;94151.56;5084297;28;20024;-82
2021/03/12 02:11:05;;;;;;;37.38;18.25;;;;;;;-1.35;66.68;94138.34;5090270;28;20059;-81
2021/03/12 02:13:31;;;;;;;41.40;19.65;;;;;;;-1.28;66.91;94119.91;5091581;28;20024;-78
2021/03/12 02:15:59;;;;;;;44.78;19.63;;;;;;;-1.26;66.60;94112.63;5090612;28;20028;-78
2021/03/12 02:18:31;;;;;;;49.60;21.58;;;;;;;-1.23;66.43;94101.69;5090308;28;20028;-78
2021/03/12 02:21:17;;;;;;;47.13;21.88;;;;;;;-1.23;66.73;94094.63;5090473;28;20032;-78
2021/03/12 02:23:52;;;;;;;43.05;20.35;;;;;;;-1.20;66.49;94098.63;5089945;28;20047;-78
2021/03/12 02:26:49;;;;;;;48.67;22.40;;;;;;;-1.15;66.42;94103.16;5090334;28;20146;-78
2021/03/12 02:29:19;;;;;;;47.53;19.73;;;;;;;-1.15;66.43;94100.53;5092407;28;20119;-78
2021/03/12 02:31:46;;;;;;;43.55;20.67;;;;;;;-1.13;66.32;94104.50;5093964;28;20028;-78
2021/03/12 02:34:13;;;;;;;45.30;20.08;;;;;;;-1.12;66.46;94093.03;5093693;28;20403;-78
2021/03/12 02:36:42;;;;;;;43.88;20.40;;;;;;;-1.10;65.97;94083.13;5092531;28;20034;-78
2021/03/12 02:39:12;;;;;;;41.80;19.77;;;;;;;-1.09;66.45;94063.75;5093638;28;20026;-78
2021/03/12 02:41:38;;;;;;;46.03;19.83;;;;;;;-1.06;66.39;94078.19;5092279;28;20024;-79
2021/03/12 02:44:07;;;;;;;45.92;20.58;;;;;;;-1.05;65.83;94079.78;5092151;28;20016;-78
2021/03/12 02:46:34;;;;;;;42.58;19.88;;;;;;;-1.02;65.56;94082.72;5092371;28;20039;-78
2021/03/12 02:49:01;;;;;;;50.92;22.42;;;;;;;-1.05;65.53;94077.97;5092119;28;20052;-77
2021/03/12 02:51:26;;;;;;;42.58;21.10;;;;;;;-1.01;65.87;94066.00;5093440;28;20038;-78
2021/03/12 02:53:52;;;;;;;42.65;21.75;;;;;;;-0.99;65.70;94070.22;5091849;28;20127;-78
2021/03/12 02:56:20;;;;;;;45.15;22.15;;;;;;;-0.97;65.61;94058.47;5091924;28;20039;-78
2021/03/12 02:58:47;;;;;;;54.92;23.88;;;;;;;-1.02;65.41;94072.28;5091954;28;20059;-78
2021/03/12 03:01:13;;;;;;;44.28;23.05;;;;;;;-1.04;65.76;94084.78;5091687;28;20027;-78
2021/03/12 03:03:40;;;;;;;49.95;22.48;;;;;;;-1.01;65.74;94083.53;5091602;28;20016;-80
2021/03/12 03:06:08;;;;;;;53.42;23.65;;;;;;;-1.04;65.24;94087.41;5091447;28;20203;-79
2021/03/12 03:08:36;;;;;;;61.30;26.38;;;;;;;-1.12;65.30;94077.31;5092864;28;20020;-80
2021/03/12 03:11:04;;;;;;;55.25;25.83;;;;;;;-1.17;66.22;94079.84;5091161;28;20084;-80
2021/03/12 03:13:38;;;;;;;59.53;28.13;;;;;;;-1.17;66.16;94066.75;5091292;28;20498;-80
2021/03/12 03:16:06;;;;;;;61.40;27.63;;;;;;;-1.17;66.29;94061.53;5091041;28;20024;-79
2021/03/12 03:18:34;;;;;;;66.43;27.58;;;;;;;-1.18;66.23;94059.94;5092636;28;20024;-81
2021/03/12 03:21:01;;;;;;;63.40;28.50;;;;;;;-1.12;66.14;94056.41;5091336;28;20027;-81
2021/03/12 03:23:27;;;;;;;69.07;30.00;;;;;;;-1.16;66.31;94042.19;5092602;28;20035;-79
2021/03/12 03:25:55;;;;;;;58.33;26.38;;;;;;;-1.16;66.48;94042.19;5093488;28;20024;-78
2021/03/12 03:28:23;;;;;;;63.45;27.92;;;;;;;-1.13;66.69;94033.88;5095992;28;20028;-79
2021/03/12 03:30:49;;;;;;;65.63;28.15;;;;;;;-1.10;66.44;94029.97;5094320;28;20038;-79
2021/03/12 03:33:15;;;;;;;56.42;25.17;;;;;;;-1.07;66.42;94038.16;5092016;28;20024;-78
2021/03/12 03:35:41;;;;;;;60.17;26.70;;;;;;;-1.03;65.73;94038.47;5095377;28;20425;-79
2021/03/12 03:38:06;;;;;;;70.82;27.38;;;;;;;-1.03;65.82;94039.28;5098804;28;20106;-79
2021/03/12 03:40:32;;;;;;;63.20;28.13;;;;;;;-1.08;66.07;94035.78;5097630;28;20024;-79
2021/03/12 03:43:00;;;;;;;60.15;26.83;;;;;;;-1.11;66.53;94034.44;5094150;28;20538;-78
2021/03/12 03:45:29;;;;;;;67.53;28.02;;;;;;;-1.15;66.46;94049.00;5094196;28;20060;-78
2021/03/12 03:47:56;;;;;;;62.92;28.13;;;;;;;-1.18;66.74;94059.94;5092573;28;20022;-81
2021/03/12 03:50:22;;;;;;;67.60;27.33;;;;;;;-1.23;67.02;94033.69;5094369;28;20032;-81
2021/03/12 03:52:48;;;;;;;67.78;28.25;;;;;;;-1.27;67.44;94028.13;5093973;28;20069;-81
2021/03/12 03:55:15;;;;;;;52.83;27.00;;;;;;;-1.28;67.55;94036.22;5093336;28;20047;-81
2021/03/12 03:57:42;;;;;;;55.97;27.23;;;;;;;-1.22;67.54;94035.28;5093342;28;20043;-81
2021/03/12 04:00:09;;;;;;;56.42;24.55;;;;;;;-1.14;67.45;94021.84;5094775;28;20023;-81
2021/03/12 04:02:35;;;;;;;65.35;26.73;;;;;;;-1.10;67.36;94024.75;5094043;28;20044;-81
2021/03/12 04:05:03;;;;;;;61.42;29.00;;;;;;;-1.06;67.23;94026.69;5092762;28;20024;-80
2021/03/12 04:07:29;;;;;;;64.72;29.35;;;;;;;-1.04;67.09;94037.69;5093193;28;20024;-80
2021/03/12 04:09:55;;;;;;;67.43;27.83;;;;;;;-1.04;66.80;94034.28;5094092;28;20035;-81
2021/03/12 04:12:21;;;;;;;58.72;27.73;;;;;;;-1.09;67.15;94029.75;5093012;28;20114;-81
2021/03/12 04:14:48;;;;;;;59.40;26.85;;;;;;;-1.09;66.83;94034.19;5094649;28;20020;-81
2021/03/12 04:17:14;;;;;;;64.18;27.73;;;;;;;-1.12;66.98;94030.25;5092598;28;20024;-80
2021/03/12 04:19:40;;;;;;;55.30;27.38;;;;;;;-1.21;67.29;94037.66;5093057;28;20012;-81
2021/03/12 04:22:08;;;;;;;60.08;27.45;;;;;;;-1.43;67.79;94041.97;5092352;28;20019;-80
2021/03/12 04:24:34;;;;;;;61.95;26.67;;;;;;;-1.49;68.30;94035.84;5095047;28;20088;-80
2021/03/12 04:27:00;;;;;;;60.55;26.73;;;;;;;-1.50;68.42;94034.28;5097345;28;20028;-81
2021/03/12 04:29:25;;;;;;;63.65;26.52;;;;;;;-1.49;68.77;94035.84;5094337;28;20024;-80
2021/03/12 04:31:51;;;;;;;60.40;27.90;;;;;;;-1.51;68.37;94026.66;5096904;28;20032;-81
2021/03/12 04:34:17;;;;;;;60.75;25.83;;;;;;;-1.49;68.39;94020.16;5091400;28;20030;-78
2021/03/12 04:36:43;;;;;;;60.25;26.48;;;;;;;-1.52;68.53;94018.03;5090188;28;20028;-78
2021/03/12 04:39:10;;;;;;;62.45;26.70;;;;;;;-1.57;69.13;94017.13;5089841;28;20024;-78
2021/03/12 04:41:36;;;;;;;64.25;26.65;;;;;;;-1.52;68.95;94022.47;5090409;28;20511;-78
2021/03/12 04:44:03;;;;;;;58.30;26.02;;;;;;;-1.47;68.82;94025.94;5092645;28;20093;-78
2021/03/12 04:46:29;;;;;;;58.58;28.38;;;;;;;-1.46;68.14;94035.38;5092151;28;20046;-78
2021/03/12 04:48:55;;;;;;;60.97;28.30;;;;;;;-1.47;68.49;94040.84;5090049;28;20024;-78
2021/03/12 04:51:21;;;;;;;55.15;26.38;;;;;;;-1.45;68.30;94050.03;5090768;28;20028;-78
2021/03/12 04:53:46;;;;;;;58.58;27.08;;;;;;;-1.54;68.63;94048.03;5090631;28;20583;-78
2021/03/12 04:56:14;;;;;;;58.97;26.33;;;;;;;-1.63;68.80;94040.56;5090473;28;20093;-81
2021/03/12 04:58:39;;;;;;;55.97;26.27;;;;;;;-1.66;69.37;94040.22;5090711;28;20050;-81
2021/03/12 05:01:09;;;;;;;60.47;26.15;;;;;;;-1.66;69.78;94043.63;5089385;28;20032;-81
2021/03/12 05:03:37;;;;;;;59.75;27.02;;;;;;;-1.77;69.93;94043.66;5088813;28;20119;-80
2021/03/12 05:06:03;;;;;;;60.95;28.98;;;;;;;-1.78;70.27;94042.09;5090888;28;20495;-81
2021/03/12 05:08:31;;;;;;;60.50;28.88;;;;;;;-1.93;70.56;94038.16;5090038;28;20031;-80
2021/03/12 05:11:02;;;;;;;65.60;29.15;;;;;;;-1.92;71.02;94025.88;5089143;28;20519;-80
2021/03/12 05:13:28;;;;;;;65.85;28.42;;;;;;;-1.92;70.82;94005.75;5089325;28;20044;-81
2021/03/12 05:15:53;;;;;;;62.00;29.65;;;;;;;-1.83;70.93;94009.59;5090840;28;20415;-81
2021/03/12 05:18:19;;;;;;;57.42;27.65;;;;;;;-1.80;70.81;94013.56;5090515;28;20031;-81
2021/03/12 05:20:45;;;;;;;62.35;28.98;;;;;;;-1.69;70.50;94015.38;5089052;28;20024;-81
2021/03/12 05:23:11;;;;;;;57.47;27.58;;;;;;;-1.58;69.82;94032.03;5089271;28;20039;-81
2021/03/12 05:25:36;;;;;;;65.45;29.42;;;;;;;-1.55;69.37;94046.44;5088855;28;20028;-81
2021/03/12 05:28:02;;;;;;;53.80;27.75;;;;;;;-1.63;70.09;94047.59;5090250;28;20016;-80
2021/03/12 05:30:28;;;;;;;53.65;28.23;;;;;;;-1.60;70.12;94060.22;5088870;28;20466;-81
2021/03/12 05:32:53;;;;;;;61.58;29.33;;;;;;;-1.61;69.93;94053.38;5088829;28;20135;-80
2021/03/12 05:35:19;;;;;;;74.72;30.83;;;;;;;-1.59;69.69;94058.38;5088813;28;20118;-81
2021/03/12 05:37:44;;;;;;;62.17;30.33;;;;;;;-1.58;69.75;94058.16;5088831;28;20028;-80
2021/03/12 05:40:10;;;;;;;68.40;29.88;;;;;;;-1.57;69.54;94061.56;5088791;28;20114;-80
2021/03/12 05:42:37;;;;;;;62.13;29.33;;;;;;;-1.58;69.70;94084.31;5088623;28;20028;-81
2021/03/12 05:45:02;;;;;;;70.25;32.35;;;;;;;-1.68;69.50;94074.44;5088581;28;20024;-81
2021/03/12 05:47:29;;;;;;;67.50;32.28;;;;;;;-1.68;70.07;94076.25;5088471;28;20030;-80
2021/03/12 05:49:58;;;;;;;79.95;33.42;;;;;;;-1.73;70.60;94065.69;5088637;28;20474;-80
2021/03/12 05:52:23;;;;;;;71.50;35.35;;;;;;;-1.69;71.04;94053.75;5089737;28;20028;-80
2021/03/12 05:54:49;;;;;;;69.15;33.17;;;;;;;-1.59;71.28;94061.00;5089935;28;20027;-81
2021/03/12 05:57:15;;;;;;;69.60;33.83;;;;;;;-1.55;70.60;94059.50;5088939;28;20028;-78
2021/03/12 05:59:40;;;;;;;69.72;32.97;;;;;;;-1.44;69.92;94069.94;5091495;28;20115;-79
2021/03/12 06:02:06;;;;;;;75.40;35.35;;;;;;;-1.37;69.81;94069.00;5093429;28;20081;-81
2021/03/12 06:04:31;;;;;;;81.07;34.47;;;;;;;-1.35;69.40;94072.97;5093880;28;20103;-80
2021/03/12 06:06:57;;;;;;;71.88;33.40;;;;;;;-1.28;69.00;94067.63;5092619;28;20035;-80
2021/03/12 06:09:22;;;;;;;73.38;34.10;;;;;;;-1.25;68.70;94070.53;5092660;28;20059;-81
2021/03/12 06:11:52;;;;;;;78.38;35.58;;;;;;;-1.25;68.75;94067.91;5092575;28;20027;-80
2021/03/12 06:14:17;;;;;;;80.63;35.67;;;;;;;-1.21;68.61;94087.34;5092694;28;20069;-82
2021/03/12 06:16:49;;;;;;;84.57;36.38;;;;;;;-1.18;68.83;94103.59;5092445;28;20020;-80
2021/03/12 06:19:18;;;;;;;;;;;;;;;-1.17;69.22;94100.75;5093796;28;20078;-80
2021/03/12 06:21:46;;;;;;;83.32;36.63;;;;;;;-1.22;69.42;94103.28;5094239;28;20363;-82
2021/03/12 06:24:23;;;;;;;76.53;36.20;;;;;;;-1.19;69.45;94108.03;5095660;28;20020;-80
2021/03/12 06:26:48;;;;;;;77.85;35.53;;;;;;;-1.27;69.42;94096.13;5101987;28;20032;-81
2021/03/12 06:29:13;;;;;;;75.93;34.67;;;;;;;-1.21;69.95;94095.19;5093765;28;20024;-81
2021/03/12 06:31:49;;;;;;;70.28;33.45;;;;;;;-1.15;69.53;94092.69;5094403;28;20095;-82
2021/03/12 06:34:15;;;;;;;74.07;33.00;;;;;;;-1.12;69.08;94093.03;5093987;28;20016;-81
2021/03/12 06:36:40;;;;;;;72.32;32.80;;;;;;;-0.97;68.81;94110.81;5094270;28;20032;-82
2021/03/12 06:39:06;;;;;;;65.35;32.72;;;;;;;-0.85;67.65;94102.91;5093841;28;20123;-81
2021/03/12 06:41:45;;;;;;;67.60;31.52;;;;;;;-0.78;67.84;94114.00;5094873;28;20482;-82
2021/03/12 06:44:27;;;;;;;65.97;32.42;;;;;;;-0.76;66.90;94125.03;5094286;28;20460;-81
2021/03/12 06:46:53;;;;;;;69.32;32.78;;;;;;;-0.71;67.00;94142.63;5091290;28;20028;-81
2021/03/12 06:49:18;;;;;;;77.97;35.25;;;;;;;-0.63;66.93;94156.16;5092470;28;20043;-81
2021/03/12 06:51:59;;;;;;;69.80;34.22;;;;;;;-0.48;68.11;94170.53;5092475;28;20035;-81
2021/03/12 06:54:27;;;;;;;77.78;34.40;;;;;;;-0.42;66.85;94170.38;5092296;28;20036;-81
2021/03/12 06:56:53;;;;;;;70.35;30.73;;;;;;;-0.31;66.46;94173.94;5093838;28;20028;-81
2021/03/12 06:59:32;;;;;;;67.63;32.90;;;;;;;-0.24;65.09;94161.50;5092800;28;20580;-77
2021/03/12 07:02:02;;;;;;;66.35;34.25;;;;;;;-0.18;65.57;94164.19;5092016;28;20410;-77
2021/03/12 07:04:29;;;;;;;70.90;32.75;;;;;;;-0.14;65.33;94173.97;5092985;28;20024;-80
2021/03/12 07:06:55;;;;;;;73.07;36.33;;;;;;;-0.12;65.53;94171.91;5094061;28;20111;-79
2021/03/12 07:09:24;;;;;;;79.28;36.75;;;;;;;-0.09;65.64;94176.66;5093680;28;20085;-78
2021/03/12 07:12:03;;;;;;;70.43;34.30;;;;;;;0.01;65.23;94177.88;5088621;28;20024;-78
2021/03/12 07:14:33;;;;;;;71.35;33.67;;;;;;;0.04;64.61;94180.00;5090332;28;20107;-79
2021/03/12 07:17:00;;;;;;;65.82;34.92;;;;;;;0.04;65.22;94183.44;5093891;28;20020;-79
2021/03/12 07:19:25;;;;;;;70.22;33.63;;;;;;;0.14;64.89;94191.44;5092755;28;20110;-78
2021/03/12 07:21:56;;;;;;;68.55;35.25;;;;;;;0.26;64.49;94185.31;5091590;28;20189;-79
2021/03/12 07:24:23;;;;;;;71.40;34.60;;;;;;;0.43;63.84;94169.53;5089191;28;20024;-79
2021/03/12 07:26:51;;;;;;;70.65;33.85;;;;;;;0.54;63.70;94172.06;5092672;28;20039;-79
2021/03/12 07:29:18;;;;;;;76.05;35.30;;;;;;;0.71;64.01;94179.09;5092981;28;20051;-79
2021/03/12 07:31:47;;;;;;;80.93;34.75;;;;;;;0.87;62.04;94183.47;5092165;28;20038;-79
2021/03/12 07:34:16;;;;;;;76.47;37.70;;;;;;;1.00;62.02;94185.75;5092449;28;20012;-79
2021/03/12 07:36:48;;;;;;;76.35;36.20;;;;;;;1.05;62.12;94166.63;5091819;28;20024;-79
2021/03/12 07:39:23;;;;;;;76.13;34.65;;;;;;;1.22;62.14;94156.03;5091157;28;20028;-79
2021/03/12 07:41:49;;;;;;;76.20;34.60;;;;;;;1.40;62.53;94153.09;5089757;28;20032;-79
2021/03/12 07:44:17;;;;;;;70.13;33.42;;;;;;;1.63;61.75;94164.34;5090965;28;20035;-79
2021/03/12 07:46:45;;;;;;;70.55;35.42;;;;;;;1.66;59.99;94145.44;5091122;28;20403;-79
2021/03/12 07:49:28;;;;;;;71.30;34.50;;;;;;;1.85;60.55;94158.19;5090639;28;20539;-79
2021/03/12 07:51:54;;;;;;;70.22;33.30;;;;;;;2.04;59.71;94151.50;5090955;28;20024;-79
2021/03/12 07:54:35;;;;;;;78.70;36.05;;;;;;;2.29;59.38;94163.25;5092206;28;20088;-79
2021/03/12 07:57:04;;;;;;;67.30;32.75;;;;;;;2.45;58.09;94151.78;5090338;28;20518;-80
2021/03/12 07:59:47;;;;;;;61.35;30.83;;;;;;;2.71;57.29;94154.56;5089873;28;20054;-81
2021/03/12 08:02:14;;;;;;;65.53;33.05;;;;;;;2.83;57.07;94139.34;5091644;28;20024;-75
2021/03/12 08:04:41;;;;;;;69.72;35.08;;;;;;;2.98;56.86;94147.28;5091581;28;20538;-75
2021/03/12 08:07:18;;;;;;;62.35;29.60;;;;;;;3.15;55.81;94125.19;5092908;28;20115;-76
2021/03/12 08:09:48;;;;;;;58.33;30.52;;;;;;;3.34;55.81;94084.16;5091587;28;20085;-74
2021/03/12 08:12:40;;;;;;;54.35;27.90;;;;;;;3.49;56.35;94080.72;5093584;28;20047;-75
2021/03/12 08:15:22;;;;;;;56.05;27.40;;;;;;;3.66;55.06;94085.72;5092976;28;20020;-75
2021/03/12 08:17:57;;;;;;;60.70;28.67;;;;;;;3.81;54.77;94092.88;5091358;28;20024;-75
2021/03/12 08:20:25;;;;;;;60.95;29.08;;;;;;;3.80;54.14;94107.09;5092718;28;20028;-75
2021/03/12 08:22:58;;;;;;;67.13;28.33;;;;;;;3.79;53.79;94122.13;5091480;28;20042;-74
2021/03/12 08:25:32;;;;;;;;;;;;;;;3.92;52.74;94147.16;5091579;28;20461;-75
2021/03/12 08:28:02;;;;;;;33.78;18.13;;;;;;;3.87;51.36;94164.84;5092485;28;19912;-75
2021/03/12 08:30:27;;;;;;;42.30;21.90;;;;;;;3.70;51.94;94163.25;5092568;28;20132;-75
2021/03/12 08:32:54;;;;;;;54.15;25.23;;;;;;;3.61;52.28;94176.16;5091150;28;20115;-74
2021/03/12 08:38:01;;;;;;;62.20;30.00;;;;;;;3.04;54.49;94145.47;5092262;28;20035;-73
2021/03/12 08:40:27;;;;;;;55.05;27.83;;;;;;;2.91;54.29;94165.16;5091870;28;20030;-73
2021/03/12 08:43:03;;;;;;;63.47;33.83;;;;;;;2.89;56.12;94164.63;5092269;28;20032;-76
2021/03/12 08:48:53;;;;;;;54.55;26.55;;;;;;;2.37;56.00;94163.56;5092459;28;20111;-75
2021/03/12 08:51:26;;;;;;;64.57;31.35;;;;;;;2.31;57.43;94169.06;5091862;28;20052;-74
2021/03/12 08:54:00;;;;;;;62.47;30.55;;;;;;;2.32;58.30;94160.91;5090524;28;20040;-75
2021/03/12 08:56:32;;;;;;;62.88;29.10;;;;;;;2.45;58.14;94151.00;5092166;28;20032;-75
2021/03/12 08:58:58;;;;;;;59.45;29.23;;;;;;;2.57;57.98;94160.25;5090710;28;20407;-74
2021/03/12 09:01:26;;;;;;;73.32;31.52;;;;;;;2.73;57.98;94155.09;5091830;28;20563;-75
2021/03/12 09:03:54;;;;;;;61.38;31.65;;;;;;;2.88;57.22;94155.13;5091667;28;20032;-72
2021/03/12 09:06:23;;;;;;;66.47;29.05;;;;;;;3.04;56.08;94163.09;5089890;28;20107;-72
2021/03/12 09:08:49;;;;;;;59.63;29.15;;;;;;;3.11;55.69;94155.75;5091408;28;20113;-71
2021/03/12 09:11:17;;;;;;;53.55;28.55;;;;;;;3.08;54.98;94138.63;5089808;28;20478;-73
2021/03/12 09:13:44;;;;;;;57.92;27.05;;;;;;;3.11;55.68;94139.94;5090894;28;20505;-72
2021/03/12 09:16:10;;;;;;;55.17;29.73;;;;;;;3.18;55.70;94137.88;5090007;28;20019;-73
2021/03/12 09:18:38;;;;;;;53.40;26.83;;;;;;;3.22;56.06;94147.63;5091241;28;20024;-72
2021/03/12 09:21:06;;;;;;;69.57;28.35;;;;;;;3.19;55.57;94147.34;5091150;28;20501;-74
2021/03/12 09:23:49;;;;;;;52.20;26.15;;;;;;;3.17;54.94;94133.63;5089575;28;20407;-73
2021/03/12 09:26:36;;;;;;;47.17;23.92;;;;;;;3.19;55.31;94134.94;5091219;28;20032;-72
2021/03/12 09:29:04;;;;;;;53.33;26.90;;;;;;;3.33;54.91;94129.19;5083470;28;20141;-73
2021/03/12 09:31:38;;;;;;;54.95;26.58;;;;;;;3.26;56.11;94134.72;5089601;28;20054;-73
2021/03/12 09:34:05;;;;;;;51.60;26.98;;;;;;;3.40;54.20;94135.81;5089434;28;20411;-72
2021/03/12 09:36:43;;;;;;;55.25;25.85;;;;;;;3.48;54.69;94121.34;5089672;28;20062;-73
2021/03/12 09:39:20;;;;;;;58.13;27.52;;;;;;;3.66;55.51;94122.63;5091102;28;20032;-74
2021/03/12 09:41:56;;;;;;;48.45;22.40;;;;;;;3.97;54.51;94125.31;5089632;28;20043;-74
2021/03/12 09:44:23;;;;;;;43.83;23.83;;;;;;;4.19;53.06;94094.16;5090619;28;20091;-73
2021/03/12 09:46:55;;;;;;;42.17;23.10;;;;;;;4.37;52.88;94113.09;5088905;28;20043;-74
2021/03/12 09:49:21;;;;;;;45.25;22.52;;;;;;;4.53;50.32;94133.13;5089283;28;20060;-73
2021/03/12 09:51:53;;;;;;;43.30;21.92;;;;;;;4.55;50.04;94098.53;5089547;28;20063;-74
2021/03/12 09:54:20;;;;;;;51.08;22.92;;;;;;;4.56;51.14;94108.84;5089170;28;20113;-74
2021/03/12 09:56:49;;;;;;;40.40;20.98;;;;;;;4.72;50.34;94106.13;5090617;28;20466;-73
2021/03/12 09:59:16;;;;;;;42.28;21.77;;;;;;;4.83;51.13;94102.41;5090570;28;20474;-73
2021/03/12 10:01:43;;;;;;;47.38;23.85;;;;;;;4.96;50.90;94104.44;5089456;28;20024;-74
2021/03/12 10:04:32;;;;;;;39.08;21.98;;;;;;;5.10;50.59;94101.22;5089004;28;20467;-75
2021/03/12 10:07:07;;;;;;;47.08;23.83;;;;;;;5.20;51.19;94114.38;5088072;28;20020;-74
2021/03/12 10:09:38;;;;;;;54.35;26.42;;;;;;;5.25;51.30;94108.25;5089002;28;20030;-74
2021/03/12 10:12:04;;;;;;;58.88;27.27;;;;;;;5.23;50.92;94117.28;5091101;28;20063;-73
2021/03/12 10:14:36;;;;;;;58.50;26.77;;;;;;;5.31;51.25;94102.69;5089187;28;20074;-73
2021/03/12 10:17:08;;;;;;;54.90;28.55;;;;;;;5.45;51.25;94096.78;5090266;28;20178;-74
2021/03/12 10:19:40;;;;;;;;;;;;;;;5.56;50.51;94093.03;5087270;28;20467;-74
2021/03/12 10:22:16;;;;;;;48.53;25.02;;;;;;;5.66;50.61;94087.66;5089018;28;19943;-74
2021/03/12 10:24:45;;;;;;;56.38;26.70;;;;;;;5.56;50.15;94079.81;5088889;28;20036;-74
2021/03/12 10:27:16;;;;;;;53.50;26.70;;;;;;;5.79;50.04;94089.66;5090612;28;20086;-76
2021/03/12 10:29:41;;;;;;;52.67;25.90;;;;;;;5.93;49.40;94086.38;5090184;28;20824;-75
2021/03/12 10:32:09;;;;;;;59.20;26.65;;;;;;;6.06;48.26;94096.34;5088717;28;20040;-75
2021/03/12 10:34:43;;;;;;;53.53;26.42;;;;;;;6.06;48.72;94085.75;5088598;28;20016;-75
2021/03/12 10:37:13;;;;;;;47.95;25.45;;;;;;;6.06;47.39;94080.47;5086444;28;20020;-75
2021/03/12 10:39:42;;;;;;;51.47;27.25;;;;;;;6.02;49.03;94082.09;5088232;28;20124;-74
2021/03/12 10:42:08;;;;;;;55.35;26.73;;;;;;;6.12;49.41;94083.84;5087081;28;20036;-73
2021/03/12 10:44:54;;;;;;;61.17;27.00;;;;;;;6.26;49.92;94081.34;5088119;28;20023;-74
2021/03/12 10:47:20;;;;;;;51.88;26.27;;;;;;;6.40;48.83;94080.38;5090844;28;20024;-75
2021/03/12 10:49:46;;;;;;;57.10;28.73;;;;;;;6.50;48.74;94084.78;5091697;28;20032;-74
2021/03/12 10:52:31;;;;;;;58.42;28.10;;;;;;;6.62;46.75;94093.13;5092874;28;20058;-76
2021/03/12 10:55:07;;;;;;;54.53;28.23;;;;;;;6.65;47.46;94083.03;5090513;28;20031;-76
2021/03/12 10:57:48;;;;;;;56.72;27.23;;;;;;;6.59;46.40;94077.00;5091674;28;21564;-72
2021/03/12 11:00:25;;;;;;;49.88;23.98;;;;;;;6.65;47.10;94065.28;5092646;28;20028;-73
2021/03/12 11:02:56;;;;;;;53.25;26.02;;;;;;;6.38;47.19;94065.88;5090265;28;20418;-74
2021/03/12 11:05:21;;;;;;;55.25;25.67;;;;;;;6.64;47.83;94047.84;5091412;28;20494;-73
2021/03/12 11:07:47;;;;;;;48.35;25.73;;;;;;;6.83;47.35;94055.81;5091417;28;20016;-72
2021/03/12 11:10:14;;;;;;;55.70;26.65;;;;;;;6.98;47.16;94047.69;5093014;28;20107;-73
2021/03/12 11:12:43;;;;;;;51.15;26.08;;;;;;;6.78;47.20;94040.00;5091683;28;20016;-73
2021/03/12 11:15:10;;;;;;;47.97;24.90;;;;;;;6.96;45.26;94046.38;5092663;28;20020;-72
2021/03/12 11:17:37;;;;;;;44.28;25.08;;;;;;;7.19;46.32;94048.19;5091061;28;20039;-72
2021/03/12 11:20:06;;;;;;;46.05;25.13;;;;;;;7.58;45.83;94049.72;5090835;28;20028;-73
2021/03/12 11:22:33;;;;;;;48.97;25.83;;;;;;;7.92;44.95;94038.06;5090632;28;20027;-72
2021/03/12 11:24:58;;;;;;;52.83;26.17;;;;;;;8.19;42.26;94045.28;5089428;28;20111;-72
2021/03/12 11:27:25;;;;;;;53.03;26.23;;;;;;;8.30;43.57;94031.81;5090984;28;20471;-71
2021/03/12 11:29:50;;;;;;;53.90;27.13;;;;;;;8.46;44.21;94042.97;5091889;28;20120;-72
2021/03/12 11:32:16;;;;;;;58.25;27.20;;;;;;;8.70;42.73;94040.91;5090520;28;20500;-71
2021/03/12 11:34:41;;;;;;;53.28;27.17;;;;;;;8.86;42.33;94035.28;5091777;28;20032;-72